Abdullah Town, Pakistan

4:52 PM PKT on May 24, 2017 (GMT +0500)
Westridge-1, Rawalpindi, Pakistan | | Change Station

Elev 1716 ft 33.61 °N, 73.03 °E | Updated 7 seconds ago

Partly Cloudy
Partly Cloudy
96.6 °F
Feels Like 99 °F
N
4.0
Wind Variable Wind from SSW
Gusts 4.9 mph

Today
High -- | Low -- °F
--% Chance of Precip.
Yesterday
High -- | Low -- °F
Precip. -- in
Pressure 29.65 in
Visibility 3.7 miles
Clouds Scattered Clouds 4500 ft
Heat Index 99 °F
Dew Point 64 °F
Humidity 34%
Rainfall 0.00 in
Snow Depth Not available.
5:02 AM 7:08 PM
Waning Crescent, 3% visible
METAR OPRN 241100Z 13010KT 6000 SCT045 39/17 Q1004.9/29.67
Pressure 29.65 in
Visibility 3.7 miles
Clouds Scattered Clouds 4500 ft
Heat Index 99 °F
Dew Point 64 °F
Humidity 34%
Rainfall 0.00 in
Snow Depth Not available.
5:02 AM 7:08 PM
Waning Crescent, 3% visible
METAR OPRN 241100Z 13010KT 6000 SCT045 39/17 Q1004.9/29.67

Get Severe Weather Alerts

Thanks for signing up!

Be on the lookout for a verification email in your inbox.

You'll start receiving the daily forecast at 6 AM.

×

10-Day Weather Forecast

No radar image for this location.
×

Almanac

Astronomy

May. 24, 2017 Rise Set
Actual Time
Civil Twilight
Nautical Twilight
Astronomical Twilight
Moon
Length of Visible Light
Length of Day
Tomorrow will be .
, % of the Moon is Illuminated

Today's Extremes

Country Highs Country Lows

Community

WunderPhotos

Category 6

Welcome to Category 6. This is the collective home for Weather Underground's featured writeups by Dr. Jeff Masters (right), Bob Henson (left), Chris Burt, and other regular contributors.

Nearby

Air Quality

  Air Quality AQ Index Pollutant
Not available.

Snow Depth

Station Depth Elevation

Earthquake Activity

City Distance Mag. Time & Date
Minimum magnitude displayed is 2.5.

Coastal Water Temperatures

Place Temperature

Stations

Nearby Weather Stations

Station Location Temp. Windchill Dew Point Humidity Wind Precip. Elev Updated Type